Time;durP1;ratioP1;P1;durP2;ratioP2;P2;SDS_P1;SDS_P2;PMS_P1;PMS_P2;Temp;Humidity;BMP_temperature;BMP_pressure;BME280_temperature;BME280_humidity;BME280_pressure;Samples;Min_cycle;Max_cycle;Signal;HPM_P1;HPM_P2
2023/10/06 00:01:00;;;;;;;7.45;2.50;;;13.90;99.90;;;;;;5087916;28;20639;-33
2023/10/06 00:03:26;;;;;;;4.95;2.53;;;13.90;99.90;;;;;;5091793;28;20051;-33
2023/10/06 00:05:53;;;;;;;7.80;3.22;;;13.90;99.90;;;;;;5089632;28;20056;-33
2023/10/06 00:08:22;;;;;;;6.88;2.72;;;13.90;99.90;;;;;;5083355;28;20051;-34
2023/10/06 00:10:54;;;;;;;6.75;3.10;;;13.90;99.90;;;;;;5076962;28;20402;-33
2023/10/06 00:13:28;;;;;;;7.70;3.20;;;13.90;99.90;;;;;;5082903;28;20161;-33
2023/10/06 00:15:55;;;;;;;7.72;3.55;;;13.90;99.90;;;;;;5087590;28;20044;-33
2023/10/06 00:18:23;;;;;;;9.05;3.70;;;13.90;99.90;;;;;;5064798;28;20559;-33
2023/10/06 00:20:56;;;;;;;8.40;3.55;;;13.90;99.90;;;;;;5066690;28;20078;-34
2023/10/06 00:23:23;;;;;;;9.32;4.90;;;13.90;99.90;;;;;;5080215;28;20490;-33
2023/10/06 00:25:57;;;;;;;7.63;3.65;;;13.90;99.90;;;;;;5074431;28;20080;-33
2023/10/06 00:28:27;;;;;;;6.80;3.63;;;13.90;99.90;;;;;;5072058;28;20135;-33
2023/10/06 00:30:57;;;;;;;9.05;3.88;;;13.90;99.90;;;;;;5081004;28;20048;-33
2023/10/06 00:33:32;;;;;;;8.85;3.92;;;14.00;99.90;;;;;;5083346;28;20523;-33
2023/10/06 00:36:34;;;;;;;10.27;4.00;;;13.90;99.90;;;;;;5071358;28;20417;-33
2023/10/06 00:38:54;;;;;;;8.10;4.05;;;14.00;99.90;;;;;;5077201;28;20113;-33
2023/10/06 00:41:23;;;;;;;7.38;3.20;;;14.00;99.90;;;;;;5088404;28;20479;-33
2023/10/06 00:43:49;;;;;;;6.88;2.90;;;14.00;99.90;;;;;;5081781;28;21199;-33
2023/10/06 00:46:18;;;;;;;9.55;3.45;;;14.00;99.90;;;;;;5082667;28;20060;-33
2023/10/06 00:48:45;;;;;;;7.28;3.35;;;13.90;99.90;;;;;;5075790;28;20109;-33
2023/10/06 00:51:19;;;;;;;9.40;3.60;;;13.90;99.90;;;;;;5077678;28;20055;-33
2023/10/06 00:53:46;;;;;;;12.38;4.57;;;13.90;99.90;;;;;;5080817;28;20060;-33
2023/10/06 00:56:15;;;;;;;7.35;3.33;;;13.90;99.90;;;;;;5073624;28;20385;-33
2023/10/06 00:58:41;;;;;;;9.55;3.30;;;13.90;99.90;;;;;;5088357;28;20121;-33
2023/10/06 01:01:12;;;;;;;6.13;2.80;;;13.80;99.90;;;;;;5093817;28;20117;-33
2023/10/06 01:03:38;;;;;;;7.78;3.35;;;13.80;99.90;;;;;;5078080;28;20497;-33
2023/10/06 01:06:15;;;;;;;10.15;3.30;;;13.80;99.90;;;;;;5087346;28;20136;-33
2023/10/06 01:08:52;;;;;;;6.28;3.42;;;13.80;99.90;;;;;;5088354;28;20165;-33
2023/10/06 01:11:20;;;;;;;9.23;3.28;;;13.80;99.90;;;;;;5080730;28;20051;-33
2023/10/06 01:13:55;;;;;;;7.57;3.30;;;13.80;99.90;;;;;;5084657;28;20051;-33
2023/10/06 01:16:35;;;;;;;7.80;3.35;;;13.80;99.90;;;;;;5085590;28;20494;-33
2023/10/06 01:19:47;;;;;;;7.70;3.40;;;13.80;99.90;;;;;;5081557;28;20409;-33
2023/10/06 01:21:48;;;;;;;7.65;2.95;;;13.80;99.90;;;;;;5069211;28;20040;-34
2023/10/06 01:24:23;;;;;;;8.20;2.80;;;13.80;99.90;;;;;;5076728;28;20058;-33
2023/10/06 01:26:49;;;;;;;6.25;3.13;;;13.70;99.90;;;;;;5077052;28;20053;-34
2023/10/06 01:29:15;;;;;;;10.35;3.67;;;13.70;99.90;;;;;;5089910;28;20063;-34
2023/10/06 01:31:41;;;;;;;12.25;3.63;;;13.70;99.90;;;;;;5087617;28;20048;-34
2023/10/06 01:34:13;;;;;;;10.02;3.53;;;13.70;99.90;;;;;;5081414;28;20044;-34
2023/10/06 01:36:39;;;;;;;7.00;3.00;;;13.70;99.90;;;;;;5080692;28;20055;-34
2023/10/06 01:39:05;;;;;;;9.20;3.28;;;13.70;99.90;;;;;;5084656;28;20044;-34
2023/10/06 01:41:37;;;;;;;6.93;2.85;;;13.70;99.90;;;;;;5078934;28;20040;-34
2023/10/06 01:44:12;;;;;;;6.65;2.90;;;13.70;99.90;;;;;;5079267;28;20052;-34
2023/10/06 01:46:38;;;;;;;7.88;2.95;;;13.70;99.90;;;;;;5083538;28;20054;-34
2023/10/06 01:49:10;;;;;;;5.65;2.92;;;13.60;99.90;;;;;;5081497;28;20063;-34
2023/10/06 01:51:42;;;;;;;10.17;3.23;;;13.60;99.90;;;;;;5087697;28;20129;-34
2023/10/06 01:54:12;;;;;;;6.15;2.80;;;13.60;99.90;;;;;;5074571;28;21310;-34
2023/10/06 01:56:44;;;;;;;7.30;3.03;;;13.60;99.90;;;;;;5094428;28;20120;-34
2023/10/06 01:59:16;;;;;;;7.20;2.90;;;13.70;99.90;;;;;;5075561;28;20056;-34
2023/10/06 02:01:43;;;;;;;6.82;3.05;;;13.70;99.90;;;;;;5081171;28;20130;-32
2023/10/06 02:04:15;;;;;;;7.85;3.30;;;13.70;99.90;;;;;;5070575;28;20049;-33
2023/10/06 02:06:41;;;;;;;5.78;3.03;;;13.70;99.90;;;;;;5070528;28;20048;-33
2023/10/06 02:09:16;;;;;;;9.85;3.15;;;13.80;99.90;;;;;;5085304;28;20075;-33
2023/10/06 02:11:46;;;;;;;8.32;3.20;;;13.80;99.90;;;;;;5085247;28;20501;-33
2023/10/06 02:14:17;;;;;;;12.13;3.40;;;13.80;99.90;;;;;;5069089;28;20059;-33
2023/10/06 02:16:44;;;;;;;6.82;3.25;;;13.80;99.90;;;;;;5076847;28;20144;-34
2023/10/06 02:19:10;;;;;;;15.75;3.80;;;13.80;99.90;;;;;;5082026;28;20052;-34
2023/10/06 02:21:45;;;;;;;8.77;3.10;;;13.80;99.90;;;;;;5083078;28;20391;-34
2023/10/06 02:24:12;;;;;;;9.15;3.03;;;13.80;99.90;;;;;;5089481;28;20060;-34
2023/10/06 02:26:38;;;;;;;7.13;3.08;;;13.80;99.90;;;;;;5085429;28;20048;-34
2023/10/06 02:29:21;;;;;;;8.13;3.00;;;13.70;99.90;;;;;;5068563;28;20059;-34
2023/10/06 02:31:47;;;;;;;5.47;3.08;;;13.70;99.90;;;;;;5090077;28;20044;-34
2023/10/06 02:34:18;;;;;;;5.82;3.17;;;13.70;99.90;;;;;;5085778;28;20489;-34
2023/10/06 02:36:44;;;;;;;8.90;3.27;;;13.70;99.90;;;;;;5076698;28;20524;-33
2023/10/06 02:39:15;;;;;;;10.40;3.50;;;13.70;99.90;;;;;;5072983;28;20052;-34
2023/10/06 02:41:41;;;;;;;9.18;3.85;;;13.70;99.90;;;;;;5078554;28;20144;-34
2023/10/06 02:44:15;;;;;;;9.82;3.53;;;13.70;99.90;;;;;;5079560;28;20119;-34
2023/10/06 02:46:44;;;;;;;8.10;3.13;;;13.70;99.90;;;;;;5078271;28;20052;-34
2023/10/06 02:49:13;;;;;;;7.35;3.38;;;13.60;99.90;;;;;;5073855;28;20056;-34
2023/10/06 02:51:48;;;;;;;9.70;3.55;;;13.60;99.90;;;;;;5083640;28;20138;-33
2023/10/06 02:56:45;;;;;;;8.07;3.38;;;13.60;99.90;;;;;;5067934;28;20152;-34
2023/10/06 02:59:25;;;;;;;10.70;3.60;;;13.50;99.90;;;;;;5060222;28;20063;-34
2023/10/06 03:01:56;;;;;;;11.65;3.72;;;13.60;99.90;;;;;;5069686;28;20093;-34
2023/10/06 03:04:25;;;;;;;7.18;3.13;;;13.50;99.90;;;;;;5074891;28;20053;-33
2023/10/06 03:06:55;;;;;;;10.05;3.83;;;13.50;99.90;;;;;;5072975;28;20079;-34
2023/10/06 03:09:21;;;;;;;7.97;3.17;;;13.50;99.90;;;;;;5081454;28;20054;-34
2023/10/06 03:11:50;;;;;;;9.23;3.40;;;13.50;99.90;;;;;;5085767;28;20151;-33
2023/10/06 03:14:24;;;;;;;7.32;3.35;;;13.50;99.90;;;;;;5060467;28;20128;-34
2023/10/06 03:16:53;;;;;;;7.57;3.10;;;13.40;99.90;;;;;;5078878;28;20051;-34
2023/10/06 03:19:25;;;;;;;10.25;3.20;;;13.40;99.90;;;;;;5081978;28;20070;-33
2023/10/06 03:21:57;;;;;;;6.03;3.03;;;13.30;99.90;;;;;;5084769;28;20058;-33
2023/10/06 03:24:31;;;;;;;8.83;3.17;;;13.30;99.90;;;;;;5083388;28;20047;-33
2023/10/06 03:26:58;;;;;;;10.95;2.88;;;13.20;99.90;;;;;;5073224;28;20055;-33
2023/10/06 03:29:43;;;;;;;12.20;3.60;;;13.20;99.90;;;;;;5074694;28;20620;-33
2023/10/06 03:32:20;;;;;;;10.20;3.15;;;13.20;99.90;;;;;;5065727;28;20084;-32
2023/10/06 03:34:47;;;;;;;5.13;2.47;;;13.20;99.90;;;;;;5080886;28;20048;-33
2023/10/06 03:37:16;;;;;;;6.53;3.00;;;13.10;99.90;;;;;;5073701;28;20481;-33
2023/10/06 03:39:50;;;;;;;6.85;2.80;;;13.10;99.90;;;;;;5070371;28;20049;-33
2023/10/06 03:42:20;;;;;;;8.13;3.53;;;13.10;99.90;;;;;;5084572;28;20055;-33
2023/10/06 03:44:52;;;;;;;8.63;3.10;;;13.10;99.90;;;;;;5080683;28;20051;-33
2023/10/06 03:47:18;;;;;;;10.07;3.10;;;13.10;99.90;;;;;;5077366;28;20079;-33
2023/10/06 03:49:47;;;;;;;8.60;2.75;;;13.10;99.90;;;;;;5079066;28;20066;-33
2023/10/06 03:52:16;;;;;;;9.23;2.92;;;13.10;99.90;;;;;;5067275;28;20056;-33
2023/10/06 03:54:42;;;;;;;8.27;2.85;;;13.10;99.90;;;;;;5076955;28;20481;-34
2023/10/06 03:57:07;;;;;;;5.45;2.42;;;13.00;99.90;;;;;;5087161;28;20051;-34
2023/10/06 03:59:33;;;;;;;10.13;3.35;;;13.00;99.90;;;;;;5090702;28;20043;-36
2023/10/06 04:01:59;;;;;;;8.60;2.55;;;13.00;99.90;;;;;;5074783;28;20065;-34
2023/10/06 04:04:26;;;;;;;5.63;2.40;;;13.00;99.90;;;;;;5085736;28;20135;-34
2023/10/06 04:06:54;;;;;;;7.22;2.67;;;13.00;99.90;;;;;;5085393;28;20047;-33
2023/10/06 04:09:27;;;;;;;7.32;2.65;;;13.00;99.90;;;;;;5089776;28;20143;-33
2023/10/06 04:11:53;;;;;;;8.35;3.05;;;13.00;99.90;;;;;;5078518;28;20048;-33
2023/10/06 04:14:20;;;;;;;8.27;3.13;;;13.00;99.90;;;;;;5070447;28;20047;-34
2023/10/06 04:16:46;;;;;;;6.65;2.88;;;13.00;99.90;;;;;;5076527;28;20056;-40
2023/10/06 04:19:16;;;;;;;10.18;2.90;;;13.00;99.90;;;;;;5077132;28;20054;-33
2023/10/06 04:21:42;;;;;;;8.45;2.92;;;13.10;99.90;;;;;;5081161;28;20040;-33
2023/10/06 04:24:09;;;;;;;6.63;2.83;;;13.10;99.90;;;;;;5077098;28;20048;-34
2023/10/06 04:26:34;;;;;;;8.68;3.05;;;13.10;99.90;;;;;;5075471;28;20060;-34
2023/10/06 04:29:01;;;;;;;6.63;2.83;;;13.10;99.90;;;;;;5085322;28;20055;-34
2023/10/06 04:31:26;;;;;;;6.68;2.58;;;13.10;99.90;;;;;;5079721;28;20074;-34
2023/10/06 04:33:53;;;;;;;8.60;3.00;;;13.10;99.90;;;;;;5081082;28;20040;-34
2023/10/06 04:36:23;;;;;;;10.18;2.97;;;13.10;99.90;;;;;;5075744;28;20078;-34
2023/10/06 04:38:48;;;;;;;9.48;2.88;;;13.10;99.90;;;;;;5061636;28;20059;-34
2023/10/06 04:41:14;;;;;;;9.75;3.03;;;13.20;99.90;;;;;;5087301;28;20048;-34
2023/10/06 04:43:46;;;;;;;9.40;2.97;;;13.20;99.90;;;;;;5072914;28;20048;-34
2023/10/06 04:46:13;;;;;;;8.47;3.07;;;13.20;99.90;;;;;;5082987;28;20080;-34
2023/10/06 04:48:39;;;;;;;11.15;2.97;;;13.20;99.90;;;;;;5080946;28;20298;-34
2023/10/06 04:51:12;;;;;;;11.68;2.90;;;13.20;99.90;;;;;;5089730;28;20409;-35
2023/10/06 04:53:38;;;;;;;9.82;2.97;;;13.30;99.90;;;;;;5061035;28;20056;-34
2023/10/06 04:56:05;;;;;;;6.75;2.70;;;13.20;99.90;;;;;;5047154;28;20075;-39
2023/10/06 04:58:31;;;;;;;7.45;2.97;;;13.30;99.90;;;;;;5076467;28;20751;-34
2023/10/06 05:01:00;;;;;;;11.45;3.05;;;13.30;99.90;;;;;;5074645;28;20470;-34
2023/10/06 05:03:27;;;;;;;7.63;3.38;;;13.30;99.90;;;;;;5086673;28;20102;-34
2023/10/06 05:05:55;;;;;;;12.75;3.10;;;13.30;99.90;;;;;;5091581;28;20142;-34
2023/10/06 05:08:24;;;;;;;6.75;3.20;;;13.30;99.90;;;;;;5073376;28;20143;-34
2023/10/06 05:10:55;;;;;;;9.75;3.38;;;13.30;99.90;;;;;;5078076;28;20406;-34
2023/10/06 05:13:21;;;;;;;8.68;3.05;;;13.40;99.90;;;;;;5074603;28;20052;-34
2023/10/06 05:15:47;;;;;;;7.35;3.15;;;13.40;99.90;;;;;;5094936;28;20563;-35
2023/10/06 05:18:16;;;;;;;8.43;3.45;;;13.40;99.90;;;;;;5084809;28;20101;-34
2023/10/06 05:20:42;;;;;;;8.73;3.28;;;13.40;99.90;;;;;;5083693;28;20052;-34
2023/10/06 05:23:14;;;;;;;7.60;3.22;;;13.40;99.90;;;;;;5085272;28;20417;-35
2023/10/06 05:25:46;;;;;;;9.32;3.20;;;13.50;99.90;;;;;;5074725;28;20052;-35
2023/10/06 05:28:16;;;;;;;9.68;3.45;;;13.50;99.90;;;;;;5053315;28;20048;-34
2023/10/06 05:30:43;;;;;;;11.23;3.35;;;13.50;99.90;;;;;;5080875;28;20114;-36
2023/10/06 05:33:09;;;;;;;13.40;3.33;;;13.60;99.90;;;;;;5087187;28;20499;-34
2023/10/06 05:35:38;;;;;;;7.95;3.00;;;13.50;99.90;;;;;;5077038;28;20067;-34
2023/10/06 05:38:14;;;;;;;8.95;3.60;;;13.50;99.90;;;;;;5084783;28;20044;-36
2023/10/06 05:40:40;;;;;;;9.82;3.40;;;13.50;99.90;;;;;;5081859;28;20202;-34
2023/10/06 05:43:11;;;;;;;10.52;3.28;;;13.50;99.90;;;;;;5068705;28;20139;-35
2023/10/06 05:45:41;;;;;;;6.72;3.47;;;13.50;99.90;;;;;;5082838;28;20059;-34
2023/10/06 05:48:11;;;;;;;12.80;4.28;;;13.50;99.90;;;;;;5078946;28;20036;-35
2023/10/06 05:50:37;;;;;;;7.55;3.30;;;13.50;99.90;;;;;;5074034;28;20493;-35
2023/10/06 05:53:12;;;;;;;8.93;3.40;;;13.50;99.90;;;;;;5077414;28;20063;-35
2023/10/06 05:55:41;;;;;;;8.38;3.80;;;13.50;99.90;;;;;;5077973;28;20142;-35
2023/10/06 05:58:14;;;;;;;13.55;3.53;;;13.50;99.90;;;;;;5065297;28;20048;-35
2023/10/06 06:00:50;;;;;;;8.90;3.50;;;13.60;99.90;;;;;;5068402;28;20059;-35
2023/10/06 06:03:20;;;;;;;8.32;4.15;;;13.60;99.90;;;;;;5081872;28;20094;-35
2023/10/06 06:05:50;;;;;;;14.95;3.97;;;13.60;99.90;;;;;;5078443;28;20064;-35
2023/10/06 06:08:16;;;;;;;12.02;3.90;;;13.60;99.90;;;;;;5076410;28;20135;-35
2023/10/06 06:10:42;;;;;;;12.55;4.20;;;13.60;99.90;;;;;;5082769;28;20147;-35
2023/10/06 06:13:07;;;;;;;10.18;3.47;;;13.70;99.90;;;;;;5075175;28;20130;-35
2023/10/06 06:15:35;;;;;;;9.07;4.47;;;13.70;99.90;;;;;;5082582;28;20044;-35
2023/10/06 06:18:01;;;;;;;9.63;3.38;;;13.70;99.90;;;;;;5084690;28;20067;-34
2023/10/06 06:20:30;;;;;;;12.82;4.00;;;13.70;99.90;;;;;;5065889;28;20048;-34
2023/10/06 06:22:59;;;;;;;9.45;3.55;;;13.70;99.90;;;;;;5083428;28;20101;-34
2023/10/06 06:25:28;;;;;;;10.00;3.40;;;13.70;99.90;;;;;;5085530;28;20052;-34
2023/10/06 06:27:55;;;;;;;10.98;3.63;;;13.70;99.90;;;;;;5082320;28;20105;-34
2023/10/06 06:30:23;;;;;;;8.52;3.65;;;13.70;99.90;;;;;;5069498;28;20070;-35
2023/10/06 06:32:50;;;;;;;6.85;3.00;;;13.70;99.90;;;;;;5080329;28;20076;-34
2023/10/06 06:35:19;;;;;;;10.98;3.80;;;13.80;99.90;;;;;;5091365;28;20054;-34
2023/10/06 06:37:46;;;;;;;8.27;3.70;;;13.80;99.90;;;;;;5079987;28;20675;-34
2023/10/06 06:40:13;;;;;;;8.38;3.50;;;13.80;99.90;;;;;;5077255;28;20048;-34
2023/10/06 06:42:40;;;;;;;9.07;3.33;;;13.80;99.90;;;;;;5077136;28;20131;-34
2023/10/06 06:45:07;;;;;;;10.30;3.25;;;13.90;99.90;;;;;;5076224;28;20076;-34
2023/10/06 06:47:32;;;;;;;8.88;3.17;;;13.90;99.90;;;;;;5080947;28;21305;-34
2023/10/06 06:50:00;;;;;;;11.32;3.13;;;13.90;99.90;;;;;;5084659;28;20123;-34
2023/10/06 06:52:27;;;;;;;10.68;3.88;;;13.90;99.90;;;;;;5087975;28;20505;-34
2023/10/06 06:54:53;;;;;;;8.27;3.10;;;13.90;99.90;;;;;;5071032;28;20075;-34
2023/10/06 06:57:19;;;;;;;8.48;3.25;;;13.90;99.90;;;;;;5088646;28;20128;-34
2023/10/06 06:59:45;;;;;;;9.73;3.55;;;13.90;99.90;;;;;;5083770;28;20048;-34
2023/10/06 07:02:11;;;;;;;11.02;3.42;;;13.90;99.90;;;;;;5075942;28;20104;-34
2023/10/06 07:04:38;;;;;;;9.45;3.25;;;13.90;99.90;;;;;;5082108;28;20050;-34
2023/10/06 07:07:04;;;;;;;7.65;2.67;;;13.90;99.90;;;;;;5086435;28;20055;-36
2023/10/06 07:09:30;;;;;;;12.43;3.53;;;13.90;99.90;;;;;;5082037;28;20048;-34
2023/10/06 07:11:55;;;;;;;9.60;3.33;;;13.80;99.90;;;;;;5057454;28;20113;-34
2023/10/06 07:14:21;;;;;;;8.68;3.20;;;13.80;99.90;;;;;;5066534;28;20502;-34
2023/10/06 07:16:47;;;;;;;9.25;3.53;;;13.80;99.90;;;;;;5076437;28;20047;-34
2023/10/06 07:19:14;;;;;;;9.73;3.65;;;13.80;99.90;;;;;;5076368;28;20058;-34
2023/10/06 07:21:41;;;;;;;6.65;3.25;;;13.80;99.90;;;;;;5078369;28;20533;-36
2023/10/06 07:24:10;;;;;;;8.82;3.45;;;13.90;99.90;;;;;;5078736;28;20059;-35
2023/10/06 07:26:36;;;;;;;8.93;3.28;;;13.90;99.90;;;;;;5079484;28;20516;-34
2023/10/06 07:29:05;;;;;;;9.43;3.03;;;14.00;99.90;;;;;;5081977;28;20044;-35
2023/10/06 07:31:31;;;;;;;8.60;2.85;;;14.00;99.90;;;;;;5084832;28;20493;-34
2023/10/06 07:34:05;;;;;;;8.18;3.28;;;14.10;99.90;;;;;;5076591;28;20052;-35
2023/10/06 07:36:35;;;;;;;10.40;2.85;;;14.10;99.90;;;;;;5066449;28;20048;-34
2023/10/06 07:39:03;;;;;;;9.30;3.60;;;14.20;99.90;;;;;;5085830;28;20134;-35
2023/10/06 07:41:29;;;;;;;9.85;3.03;;;14.20;99.90;;;;;;5056559;28;20068;-35
2023/10/06 07:43:56;;;;;;;7.97;3.25;;;14.30;99.90;;;;;;5085204;28;20078;-34
2023/10/06 07:46:22;;;;;;;14.63;3.85;;;14.40;99.90;;;;;;5082408;28;20055;-35
2023/10/06 07:48:50;;;;;;;7.43;3.40;;;14.40;99.90;;;;;;5081744;28;20040;-35
2023/10/06 07:51:16;;;;;;;9.55;3.35;;;14.40;99.90;;;;;;5085161;28;20732;-35
2023/10/06 07:53:43;;;;;;;11.98;3.67;;;14.40;99.90;;;;;;5082991;28;20051;-35
2023/10/06 07:56:09;;;;;;;8.95;3.75;;;14.40;99.90;;;;;;5083804;28;20047;-35
2023/10/06 07:58:43;;;;;;;10.65;3.17;;;14.40;99.90;;;;;;5076458;28;21351;-35
2023/10/06 08:01:09;;;;;;;13.07;3.75;;;14.40;99.90;;;;;;5069451;28;20525;-35
2023/10/06 08:03:38;;;;;;;9.02;3.10;;;14.40;99.90;;;;;;5075386;28;20049;-36
2023/10/06 08:06:05;;;;;;;8.90;2.90;;;14.40;99.90;;;;;;5087572;28;20543;-35
2023/10/06 08:08:35;;;;;;;6.88;3.05;;;14.50;99.90;;;;;;5088864;28;20044;-35
2023/10/06 08:11:05;;;;;;;12.25;3.80;;;14.50;99.90;;;;;;5077604;28;20059;-36
2023/10/06 08:13:38;;;;;;;13.93;3.97;;;14.60;99.90;;;;;;5082231;28;20053;-35
2023/10/06 08:16:06;;;;;;;6.65;3.40;;;14.70;99.90;;;;;;5081692;28;20071;-36
2023/10/06 08:18:32;;;;;;;9.23;3.90;;;14.80;99.90;;;;;;5080123;28;20052;-35
2023/10/06 08:21:00;;;;;;;11.40;4.65;;;14.90;99.90;;;;;;5078332;28;20391;-36
2023/10/06 08:23:31;;;;;;;9.63;3.60;;;14.90;99.90;;;;;;5083715;28;20105;-35
2023/10/06 08:25:57;;;;;;;11.00;3.92;;;14.90;99.90;;;;;;5077110;28;20144;-35
2023/10/06 08:28:26;;;;;;;10.77;3.97;;;14.90;99.90;;;;;;5079447;28;20062;-34
2023/10/06 08:30:54;;;;;;;8.10;3.55;;;14.90;99.90;;;;;;5087189;28;20051;-35
2023/10/06 08:33:20;;;;;;;12.07;4.00;;;14.80;99.90;;;;;;5069092;28;20127;-34
2023/10/06 08:35:46;;;;;;;10.85;4.10;;;14.90;99.90;;;;;;5091108;28;20462;-34
2023/10/06 08:38:11;;;;;;;7.20;3.70;;;14.80;99.90;;;;;;5087712;28;20399;-38
2023/10/06 08:40:41;;;;;;;7.28;3.83;;;14.90;99.90;;;;;;5076455;28;20044;-34
2023/10/06 08:43:08;;;;;;;10.52;3.38;;;14.90;99.90;;;;;;5091328;28;20112;-34
2023/10/06 08:45:42;;;;;;;10.00;4.63;;;14.90;99.90;;;;;;5090467;28;20052;-33
2023/10/06 08:48:10;;;;;;;8.48;3.80;;;14.90;99.90;;;;;;5083304;28;20060;-33
2023/10/06 08:50:37;;;;;;;11.60;3.80;;;15.00;99.90;;;;;;5066518;28;20055;-34
2023/10/06 08:53:05;;;;;;;7.35;3.78;;;15.00;99.90;;;;;;5080212;28;20051;-33
2023/10/06 08:55:31;;;;;;;8.63;3.55;;;15.00;99.90;;;;;;5073618;28;20075;-33
2023/10/06 08:58:00;;;;;;;7.57;3.70;;;15.00;99.90;;;;;;5095569;28;20052;-34
2023/10/06 09:00:31;;;;;;;10.43;3.65;;;15.10;99.90;;;;;;5081749;28;20052;-33
2023/10/06 09:03:07;;;;;;;9.45;3.70;;;15.10;99.90;;;;;;5082275;28;20056;-33
2023/10/06 09:05:40;;;;;;;8.13;3.40;;;15.10;99.90;;;;;;5096426;28;20107;-33
2023/10/06 09:08:08;;;;;;;12.30;4.15;;;15.20;99.90;;;;;;5092054;28;20071;-35
2023/10/06 09:10:40;;;;;;;12.05;4.22;;;15.20;99.90;;;;;;5085138;28;20108;-34
2023/10/06 09:13:15;;;;;;;7.72;3.58;;;15.20;99.90;;;;;;5076289;28;20041;-34
2023/10/06 09:15:43;;;;;;;6.38;3.15;;;15.20;99.90;;;;;;5075901;28;20040;-34
2023/10/06 09:18:27;;;;;;;10.52;4.15;;;15.20;99.90;;;;;;5058775;28;20052;-34
2023/10/06 09:20:54;;;;;;;10.60;3.95;;;15.30;99.90;;;;;;5085039;28;20452;-34
2023/10/06 09:23:47;;;;;;;12.98;4.30;;;15.30;99.90;;;;;;5088782;28;20076;-34
2023/10/06 09:26:19;;;;;;;9.23;3.97;;;15.40;99.90;;;;;;5078589;28;20067;-36
2023/10/06 09:28:52;;;;;;;9.00;3.47;;;15.50;99.90;;;;;;5066876;28;20062;-34
2023/10/06 09:31:44;;;;;;;13.63;4.57;;;15.50;99.90;;;;;;5073418;28;20052;-34
2023/10/06 09:34:11;;;;;;;11.30;3.97;;;15.50;99.90;;;;;;5065325;28;20044;-34
2023/10/06 09:36:38;;;;;;;10.18;3.95;;;15.60;99.90;;;;;;5085124;28;20422;-35
2023/10/06 09:39:13;;;;;;;10.43;3.28;;;15.70;99.90;;;;;;5083157;28;20113;-35
2023/10/06 09:41:40;;;;;;;7.93;2.88;;;15.70;99.90;;;;;;5072730;28;20490;-35
2023/10/06 09:44:09;;;;;;;9.13;2.90;;;15.80;99.90;;;;;;5082667;28;20075;-34
2023/10/06 09:46:35;;;;;;;10.85;3.20;;;15.80;99.90;;;;;;5073449;28;20048;-34
2023/10/06 09:49:05;;;;;;;8.77;3.10;;;15.90;99.90;;;;;;5081023;28;20490;-35
2023/10/06 09:51:33;;;;;;;10.93;2.92;;;16.10;99.90;;;;;;5084010;28;20048;-35
2023/10/06 09:53:58;;;;;;;6.50;2.38;;;16.40;99.90;;;;;;5078512;28;20135;-34
2023/10/06 09:56:24;;;;;;;13.05;3.25;;;16.70;99.90;;;;;;5083405;28;20132;-34
2023/10/06 09:58:53;;;;;;;11.93;2.88;;;16.90;99.90;;;;;;5074914;28;20060;-33
2023/10/06 10:01:24;;;;;;;6.38;2.95;;;17.10;99.90;;;;;;5079923;28;20052;-35
2023/10/06 10:03:52;;;;;;;10.93;3.35;;;17.30;99.90;;;;;;5083938;28;20452;-35
2023/10/06 10:06:21;;;;;;;8.20;3.00;;;17.50;99.90;;;;;;5085407;28;20056;-35
2023/10/06 10:08:47;;;;;;;7.47;2.42;;;17.60;99.90;;;;;;5061433;28;20063;-35
2023/10/06 10:11:17;;;;;;;8.88;2.92;;;17.60;99.90;;;;;;5067062;28;20471;-35
2023/10/06 10:14:08;;;;;;;7.78;2.65;;;17.60;99.90;;;;;;5078191;28;20655;-35
2023/10/06 10:16:52;;;;;;;6.30;2.67;;;17.60;99.90;;;;;;5082015;28;20542;-34
2023/10/06 10:19:22;;;;;;;8.70;3.42;;;17.60;99.90;;;;;;5084778;28;20715;-34
2023/10/06 10:21:48;;;;;;;11.18;2.47;;;17.60;99.90;;;;;;5087720;28;20044;-35
2023/10/06 10:24:21;;;;;;;8.38;2.80;;;17.60;99.90;;;;;;5084264;28;20048;-34
2023/10/06 10:26:50;;;;;;;8.98;2.83;;;17.60;99.90;;;;;;5081845;28;20070;-34
2023/10/06 10:29:16;;;;;;;10.10;2.35;;;17.70;99.90;;;;;;5071521;28;20142;-34
2023/10/06 10:32:06;;;;;;;9.93;2.50;;;17.70;99.90;;;;;;5072209;28;21497;-34
2023/10/06 10:35:13;;;;;;;6.53;2.22;;;17.70;99.90;;;;;;5087012;28;20116;-34
2023/10/06 10:37:57;;;;;;;6.97;2.08;;;17.70;99.90;;;;;;5074554;28;20102;-34
2023/10/06 10:40:25;;;;;;;9.35;2.33;;;17.70;99.90;;;;;;5086866;28;20036;-34
2023/10/06 10:43:05;;;;;;;7.60;2.63;;;17.70;99.90;;;;;;5082972;28;20055;-34
2023/10/06 10:45:44;;;;;;;7.03;2.60;;;17.70;99.90;;;;;;5080266;28;20096;-34
2023/10/06 10:48:14;;;;;;;6.18;2.20;;;17.70;99.90;;;;;;5080305;28;20096;-34
2023/10/06 10:50:59;;;;;;;7.40;2.67;;;17.70;99.90;;;;;;5081545;28;20052;-35
2023/10/06 10:53:31;;;;;;;7.68;2.58;;;17.70;99.90;;;;;;5082021;28;20409;-34
2023/10/06 10:55:58;;;;;;;9.63;2.75;;;17.70;99.90;;;;;;5072150;28;20102;-35
2023/10/06 10:58:44;;;;;;;6.97;2.38;;;17.60;99.90;;;;;;5079161;28;20413;-35
2023/10/06 11:01:29;;;;;;;7.07;2.17;;;17.60;99.90;;;;;;5068548;28;20044;-33
2023/10/06 11:04:14;;;;;;;10.20;2.85;;;17.50;99.90;;;;;;5088825;28;20058;-33
2023/10/06 11:06:40;;;;;;;8.68;2.42;;;17.40;99.90;;;;;;5079704;28;20063;-33
2023/10/06 11:09:25;;;;;;;7.80;2.67;;;17.30;99.90;;;;;;5085493;28;20184;-34
2023/10/06 11:11:58;;;;;;;11.95;2.60;;;17.30;99.90;;;;;;5070336;28;20077;-34
2023/10/06 11:14:30;;;;;;;9.80;2.42;;;17.30;99.90;;;;;;5081826;28;20043;-33
2023/10/06 11:17:05;;;;;;;7.60;2.53;;;17.30;99.90;;;;;;5076557;28;20499;-34
2023/10/06 11:19:36;;;;;;;7.80;3.00;;;17.30;99.90;;;;;;5084631;28;20054;-34
2023/10/06 11:22:13;;;;;;;7.17;2.50;;;17.40;99.90;;;;;;5081576;28;20135;-34
2023/10/06 11:24:40;;;;;;;8.60;2.30;;;17.50;99.90;;;;;;5084542;28;20113;-34
2023/10/06 11:27:23;;;;;;;8.70;2.80;;;17.60;99.90;;;;;;5083361;28;20513;-34
2023/10/06 11:29:51;;;;;;;;;;;17.60;99.90;;;;;;5080448;28;20050;-35
2023/10/06 11:32:17;;;;;;;4.78;2.42;;;17.70;99.90;;;;;;5056693;28;19943;-34
2023/10/06 11:34:48;;;;;;;9.27;3.03;;;17.70;99.90;;;;;;5069079;28;20497;-34
2023/10/06 11:37:17;;;;;;;8.23;2.92;;;17.60;99.90;;;;;;5070946;28;20098;-35
2023/10/06 11:39:44;;;;;;;10.20;3.35;;;17.60;99.90;;;;;;5076631;28;20138;-39
2023/10/06 11:42:29;;;;;;;6.43;2.30;;;17.60;99.90;;;;;;5079275;28;20048;-46
2023/10/06 11:44:57;;;;;;;6.65;2.10;;;17.60;99.90;;;;;;5073757;28;20048;-34
2023/10/06 11:47:43;;;;;;;13.55;3.28;;;17.70;99.90;;;;;;5063882;28;20049;-35
2023/10/06 11:50:21;;;;;;;6.88;2.53;;;17.90;99.90;;;;;;5084518;28;20603;-34
2023/10/06 11:52:48;;;;;;;6.45;2.40;;;18.10;99.90;;;;;;5082522;28;20493;-35
2023/10/06 11:55:22;;;;;;;5.88;2.20;;;18.30;99.90;;;;;;5063195;28;20505;-39
2023/10/06 11:57:51;;;;;;;9.57;2.17;;;18.40;99.90;;;;;;5086366;28;20569;-34
2023/10/06 12:00:18;;;;;;;8.32;2.20;;;18.50;99.90;;;;;;5078485;28;20132;-34
2023/10/06 12:02:50;;;;;;;7.53;2.38;;;18.60;99.90;;;;;;5075694;28;20580;-35
2023/10/06 12:05:19;;;;;;;7.30;2.00;;;18.70;99.90;;;;;;5083686;28;20510;-35
2023/10/06 12:07:55;;;;;;;5.80;2.80;;;18.90;99.90;;;;;;5087277;28;20082;-34
2023/10/06 12:10:21;;;;;;;6.75;2.30;;;19.10;99.90;;;;;;5085211;28;20335;-34
2023/10/06 12:12:50;;;;;;;6.70;2.20;;;19.30;99.90;;;;;;5088507;28;20548;-34
2023/10/06 12:15:16;;;;;;;5.80;1.95;;;19.50;99.90;;;;;;5090056;28;20048;-35
2023/10/06 12:17:43;;;;;;;6.05;1.65;;;19.60;99.90;;;;;;5093955;28;20056;-34
2023/10/06 12:20:13;;;;;;;17.23;3.47;;;19.80;99.90;;;;;;5089590;28;20505;-35
2023/10/06 12:22:43;;;;;;;9.98;2.28;;;20.10;99.90;;;;;;5094493;28;20059;-42
2023/10/06 12:25:17;;;;;;;7.15;1.50;;;20.50;99.90;;;;;;5085896;28;20056;-34
2023/10/06 12:27:43;;;;;;;7.70;1.88;;;20.80;99.90;;;;;;5085651;28;20458;-34
2023/10/06 12:30:13;;;;;;;6.40;2.10;;;21.10;99.90;;;;;;5079873;28;20052;-34
2023/10/06 12:32:41;;;;;;;5.43;1.77;;;21.40;99.90;;;;;;5087167;28;20056;-34
2023/10/06 12:35:08;;;;;;;6.55;2.00;;;21.50;99.90;;;;;;5083912;28;20041;-34
2023/10/06 12:37:34;;;;;;;7.20;1.63;;;21.60;99.90;;;;;;5084053;28;20060;-33
2023/10/06 12:40:03;;;;;;;8.35;2.20;;;21.60;99.90;;;;;;5068270;28;20396;-34
2023/10/06 12:42:31;;;;;;;5.53;1.70;;;21.60;99.90;;;;;;5079753;28;20622;-34
2023/10/06 12:44:58;;;;;;;7.18;1.70;;;21.40;99.90;;;;;;5065469;28;20160;-35
2023/10/06 12:47:24;;;;;;;10.43;1.77;;;21.00;99.90;;;;;;5085119;28;20044;-34
2023/10/06 12:49:49;;;;;;;10.38;2.30;;;20.50;99.90;;;;;;5085993;28;20098;-34
2023/10/06 12:52:15;;;;;;;10.00;2.42;;;20.30;99.90;;;;;;5081338;28;20745;-34
2023/10/06 12:54:41;;;;;;;7.47;2.33;;;20.10;99.90;;;;;;5085600;28;20139;-35
2023/10/06 12:57:06;;;;;;;8.07;1.90;;;20.00;99.90;;;;;;5085025;28;20044;-35
2023/10/06 12:59:32;;;;;;;7.50;2.35;;;19.90;99.90;;;;;;5075921;28;20157;-35
2023/10/06 13:01:58;;;;;;;9.65;2.00;;;19.90;99.90;;;;;;5082450;28;20048;-35